KMRC/MRC METAR and TAF weather

Enter ICAO airport designator
Station Type Date Time Source
KMRC METAR 2020/01/17 14:15 UTC NOAA

KMRC 171415Z AUTO 05009KT 10SM SCT100 02/M06 A3057 RMK A01


Station Type Date Time Source
KMRC Decoded METAR 2020/01/17 14:15 UTC NOAA

Columbia / Maury County, TN, United States (KMRC) 35-33N 087-11W
Jan 17, 2020 - 09:15 AM EST / 2020.01.17 1415 UTC
Wind: from the NE (050 degrees) at 10 MPH (9 KT):0
Visibility: 10 mile(s):0
Sky conditions: partly cloudy
Temperature: 35 F (2 C)
Windchill: 26 F (-3 C):1
Dew Point: 21 F (-6 C)
Relative Humidity: 55%
Pressure (altimeter): 30.57 in. Hg (1035 hPa)
ob: KMRC 171415Z AUTO 05009KT 10SM SCT100 02/M06 A3057 RMK A01
cycle: 14

Station Type Date Time Source
KMRC TAF 2009/08/31 19:45 UTC NOAA

METAR KMRC 311945Z AUTO 06008KT 10SM CLR 26/12 A3010
RMK AO1 T02550116 $

Example: see airport list